sensor_id;sensor_type;location;lat;lon;timestamp;pressure;altitude;pressure_sealevel;temperature
69857;BMP280;57147;53.582;10.112;2022-08-25T00:01:09;102061.25;;;20.45
69857;BMP280;57147;53.582;10.112;2022-08-25T00:06:11;102069.03;;;20.47
69857;BMP280;57147;53.582;10.112;2022-08-25T00:11:17;102063.41;;;20.40
69857;BMP280;57147;53.582;10.112;2022-08-25T00:16:19;102067.22;;;20.39
69857;BMP280;57147;53.582;10.112;2022-08-25T00:21:20;102051.63;;;20.23
69857;BMP280;57147;53.582;10.112;2022-08-25T00:26:24;102065.75;;;20.20
69857;BMP280;57147;53.582;10.112;2022-08-25T00:31:24;102034.16;;;20.00
69857;BMP280;57147;53.582;10.112;2022-08-25T00:36:25;102063.13;;;20.12
69857;BMP280;57147;53.582;10.112;2022-08-25T00:41:28;102065.41;;;20.01
69857;BMP280;57147;53.582;10.112;2022-08-25T00:46:31;102072.69;;;20.01
69857;BMP280;57147;53.582;10.112;2022-08-25T00:51:36;102068.75;;;19.98
69857;BMP280;57147;53.582;10.112;2022-08-25T00:56:40;102037.28;;;19.81
69857;BMP280;57147;53.582;10.112;2022-08-25T01:01:41;102046.25;;;19.94
69857;BMP280;57147;53.582;10.112;2022-08-25T01:06:42;102054.91;;;19.79
69857;BMP280;57147;53.582;10.112;2022-08-25T01:11:45;102068.19;;;19.84
69857;BMP280;57147;53.582;10.112;2022-08-25T01:16:46;102057.25;;;19.80
69857;BMP280;57147;53.582;10.112;2022-08-25T01:21:51;102067.78;;;19.73
69857;BMP280;57147;53.582;10.112;2022-08-25T01:26:52;102066.84;;;19.69
69857;BMP280;57147;53.582;10.112;2022-08-25T01:31:55;102055.63;;;19.59
69857;BMP280;57147;53.582;10.112;2022-08-25T01:36:59;102070.22;;;19.58
69857;BMP280;57147;53.582;10.112;2022-08-25T01:42:12;102072.91;;;19.58
69857;BMP280;57147;53.582;10.112;2022-08-25T01:47:13;102069.94;;;19.51
69857;BMP280;57147;53.582;10.112;2022-08-25T01:52:20;102064.91;;;19.40
69857;BMP280;57147;53.582;10.112;2022-08-25T01:57:22;102082.31;;;19.43
69857;BMP280;57147;53.582;10.112;2022-08-25T02:02:23;102067.78;;;19.35
69857;BMP280;57147;53.582;10.112;2022-08-25T02:07:26;102068.72;;;19.39
69857;BMP280;57147;53.582;10.112;2022-08-25T02:12:27;102082.19;;;19.39
69857;BMP280;57147;53.582;10.112;2022-08-25T02:17:28;102079.66;;;19.34
69857;BMP280;57147;53.582;10.112;2022-08-25T02:22:31;102078.41;;;19.32
69857;BMP280;57147;53.582;10.112;2022-08-25T02:27:32;102083.31;;;19.21
69857;BMP280;57147;53.582;10.112;2022-08-25T02:32:33;102083.03;;;19.14
69857;BMP280;57147;53.582;10.112;2022-08-25T02:37:36;102077.81;;;19.09
69857;BMP280;57147;53.582;10.112;2022-08-25T02:42:36;102080.50;;;19.09
69857;BMP280;57147;53.582;10.112;2022-08-25T02:47:37;102080.69;;;19.04
69857;BMP280;57147;53.582;10.112;2022-08-25T02:52:40;102078.47;;;18.98
69857;BMP280;57147;53.582;10.112;2022-08-25T02:57:41;102070.53;;;18.92
69857;BMP280;57147;53.582;10.112;2022-08-25T03:02:42;102071.19;;;18.89
69857;BMP280;57147;53.582;10.112;2022-08-25T03:07:45;102044.44;;;18.76
69857;BMP280;57147;53.582;10.112;2022-08-25T03:12:46;102038.75;;;18.69
69857;BMP280;57147;53.582;10.112;2022-08-25T03:17:47;102059.97;;;18.79
69857;BMP280;57147;53.582;10.112;2022-08-25T03:22:51;102063.41;;;18.71
69857;BMP280;57147;53.582;10.112;2022-08-25T03:27:51;102057.28;;;18.70
69857;BMP280;57147;53.582;10.112;2022-08-25T03:32:52;102055.56;;;18.66
69857;BMP280;57147;53.582;10.112;2022-08-25T03:37:57;102054.59;;;18.62
69857;BMP280;57147;53.582;10.112;2022-08-25T03:42:58;102060.59;;;18.59
69857;BMP280;57147;53.582;10.112;2022-08-25T03:47:59;102048.44;;;18.53
69857;BMP280;57147;53.582;10.112;2022-08-25T03:53:02;102049.53;;;18.52
69857;BMP280;57147;53.582;10.112;2022-08-25T03:58:03;102054.75;;;18.48
69857;BMP280;57147;53.582;10.112;2022-08-25T04:03:04;102050.78;;;18.45
69857;BMP280;57147;53.582;10.112;2022-08-25T04:08:07;102053.63;;;18.40
69857;BMP280;57147;53.582;10.112;2022-08-25T04:13:08;102053.78;;;18.35
69857;BMP280;57147;53.582;10.112;2022-08-25T04:18:08;102048.38;;;18.27
69857;BMP280;57147;53.582;10.112;2022-08-25T04:23:12;102054.91;;;18.34
69857;BMP280;57147;53.582;10.112;2022-08-25T04:28:12;102053.31;;;18.33
69857;BMP280;57147;53.582;10.112;2022-08-25T04:33:13;102052.81;;;18.31
69857;BMP280;57147;53.582;10.112;2022-08-25T04:38:16;102057.44;;;18.31
69857;BMP280;57147;53.582;10.112;2022-08-25T04:43:16;102062.63;;;18.27
69857;BMP280;57147;53.582;10.112;2022-08-25T04:48:17;102057.41;;;18.22
69857;BMP280;57147;53.582;10.112;2022-08-25T04:53:21;102065.66;;;18.34
69857;BMP280;57147;53.582;10.112;2022-08-25T04:58:21;102063.91;;;18.38
69857;BMP280;57147;53.582;10.112;2022-08-25T05:03:22;102046.97;;;18.29
69857;BMP280;57147;53.582;10.112;2022-08-25T05:08:25;102006.59;;;18.04
69857;BMP280;57147;53.582;10.112;2022-08-25T05:13:26;102065.34;;;18.62
69857;BMP280;57147;53.582;10.112;2022-08-25T05:18:28;102031.00;;;18.59
69857;BMP280;57147;53.582;10.112;2022-08-25T05:23:32;102049.81;;;18.93
69857;BMP280;57147;53.582;10.112;2022-08-25T05:28:32;102042.81;;;19.01
69857;BMP280;57147;53.582;10.112;2022-08-25T05:33:33;102041.53;;;19.15
69857;BMP280;57147;53.582;10.112;2022-08-25T05:38:37;102020.31;;;19.05
69857;BMP280;57147;53.582;10.112;2022-08-25T05:43:39;102009.56;;;19.05
69857;BMP280;57147;53.582;10.112;2022-08-25T05:48:41;102049.28;;;19.25
69857;BMP280;57147;53.582;10.112;2022-08-25T05:53:46;102053.22;;;19.36
69857;BMP280;57147;53.582;10.112;2022-08-25T05:58:47;102029.31;;;19.18
69857;BMP280;57147;53.582;10.112;2022-08-25T06:03:48;102053.00;;;19.50
69857;BMP280;57147;53.582;10.112;2022-08-25T06:08:51;102054.59;;;19.72
69857;BMP280;57147;53.582;10.112;2022-08-25T06:13:52;102056.13;;;19.90
69857;BMP280;57147;53.582;10.112;2022-08-25T06:18:53;102043.88;;;19.93
69857;BMP280;57147;53.582;10.112;2022-08-25T06:23:56;102024.69;;;19.94
69857;BMP280;57147;53.582;10.112;2022-08-25T06:28:57;102031.53;;;20.12
69857;BMP280;57147;53.582;10.112;2022-08-25T06:33:57;102031.16;;;20.22
69857;BMP280;57147;53.582;10.112;2022-08-25T06:39:01;102036.03;;;20.29
69857;BMP280;57147;53.582;10.112;2022-08-25T06:44:02;102032.59;;;20.41
69857;BMP280;57147;53.582;10.112;2022-08-25T06:49:03;102026.78;;;20.51
69857;BMP280;57147;53.582;10.112;2022-08-25T06:54:08;102035.94;;;20.58
69857;BMP280;57147;53.582;10.112;2022-08-25T06:59:09;102045.97;;;20.70
69857;BMP280;57147;53.582;10.112;2022-08-25T07:04:10;102048.19;;;20.68
69857;BMP280;57147;53.582;10.112;2022-08-25T07:09:14;102049.13;;;20.72
69857;BMP280;57147;53.582;10.112;2022-08-25T07:14:16;102044.25;;;20.86
69857;BMP280;57147;53.582;10.112;2022-08-25T07:19:17;102059.13;;;21.04
69857;BMP280;57147;53.582;10.112;2022-08-25T07:24:21;102046.09;;;21.18
69857;BMP280;57147;53.582;10.112;2022-08-25T07:29:25;102034.63;;;21.21
69857;BMP280;57147;53.582;10.112;2022-08-25T07:34:26;102049.94;;;21.54
69857;BMP280;57147;53.582;10.112;2022-08-25T07:39:30;102039.66;;;21.83
69857;BMP280;57147;53.582;10.112;2022-08-25T07:44:30;102036.72;;;21.89
69857;BMP280;57147;53.582;10.112;2022-08-25T07:49:31;102043.59;;;21.86
69857;BMP280;57147;53.582;10.112;2022-08-25T07:54:35;102051.16;;;21.80
69857;BMP280;57147;53.582;10.112;2022-08-25T07:59:38;102041.59;;;21.71
69857;BMP280;57147;53.582;10.112;2022-08-25T08:04:39;102027.03;;;21.75
69857;BMP280;57147;53.582;10.112;2022-08-25T08:09:42;101999.38;;;21.54
69857;BMP280;57147;53.582;10.112;2022-08-25T08:14:43;102034.59;;;21.70
69857;BMP280;57147;53.582;10.112;2022-08-25T08:19:44;102036.50;;;21.81
69857;BMP280;57147;53.582;10.112;2022-08-25T08:24:47;102041.78;;;21.90
69857;BMP280;57147;53.582;10.112;2022-08-25T08:29:48;102034.75;;;22.13
69857;BMP280;57147;53.582;10.112;2022-08-25T08:34:48;102038.13;;;22.10
69857;BMP280;57147;53.582;10.112;2022-08-25T08:39:52;102031.53;;;22.23
69857;BMP280;57147;53.582;10.112;2022-08-25T08:45:27;102022.84;;;22.46
69857;BMP280;57147;53.582;10.112;2022-08-25T08:50:32;102037.81;;;22.27
69857;BMP280;57147;53.582;10.112;2022-08-25T08:55:39;102035.56;;;22.29
69857;BMP280;57147;53.582;10.112;2022-08-25T09:00:45;102035.06;;;22.40
69857;BMP280;57147;53.582;10.112;2022-08-25T09:05:49;102034.00;;;22.28
69857;BMP280;57147;53.582;10.112;2022-08-25T09:11:02;102022.25;;;22.52
69857;BMP280;57147;53.582;10.112;2022-08-25T09:16:10;102021.47;;;22.95
69857;BMP280;57147;53.582;10.112;2022-08-25T09:21:16;102008.47;;;23.35
69857;BMP280;57147;53.582;10.112;2022-08-25T09:26:31;101992.38;;;23.62
69857;BMP280;57147;53.582;10.112;2022-08-25T09:31:34;101992.69;;;23.41
69857;BMP280;57147;53.582;10.112;2022-08-25T09:36:35;101994.06;;;23.16
69857;BMP280;57147;53.582;10.112;2022-08-25T09:41:46;101994.00;;;22.97
69857;BMP280;57147;53.582;10.112;2022-08-25T09:47:00;101983.56;;;23.14
69857;BMP280;57147;53.582;10.112;2022-08-25T09:52:17;101956.47;;;23.14
69857;BMP280;57147;53.582;10.112;2022-08-25T09:57:33;101959.25;;;23.33
69857;BMP280;57147;53.582;10.112;2022-08-25T10:02:34;101960.84;;;23.54
69857;BMP280;57147;53.582;10.112;2022-08-25T10:07:38;101940.59;;;23.67
69857;BMP280;57147;53.582;10.112;2022-08-25T10:12:50;101916.59;;;23.69
69857;BMP280;57147;53.582;10.112;2022-08-25T10:17:50;101929.94;;;24.19
69857;BMP280;57147;53.582;10.112;2022-08-25T10:22:51;101894.22;;;24.63
69857;BMP280;57147;53.582;10.112;2022-08-25T10:28:19;101920.06;;;25.39
69857;BMP280;57147;53.582;10.112;2022-08-25T10:33:27;101908.91;;;25.47
69857;BMP280;57147;53.582;10.112;2022-08-25T10:38:36;101895.19;;;25.74
69857;BMP280;57147;53.582;10.112;2022-08-25T10:43:45;101902.25;;;25.82
69857;BMP280;57147;53.582;10.112;2022-08-25T10:48:57;101882.88;;;25.87
69857;BMP280;57147;53.582;10.112;2022-08-25T10:54:04;101892.00;;;26.05
69857;BMP280;57147;53.582;10.112;2022-08-25T10:59:21;101882.06;;;26.30
69857;BMP280;57147;53.582;10.112;2022-08-25T11:04:28;101871.94;;;26.31
69857;BMP280;57147;53.582;10.112;2022-08-25T11:09:35;101865.03;;;26.40
69857;BMP280;57147;53.582;10.112;2022-08-25T11:14:42;101847.69;;;26.73
69857;BMP280;57147;53.582;10.112;2022-08-25T11:19:48;101848.53;;;26.88
69857;BMP280;57147;53.582;10.112;2022-08-25T11:24:57;101845.09;;;27.08
69857;BMP280;57147;53.582;10.112;2022-08-25T11:30:04;101832.72;;;27.74
69857;BMP280;57147;53.582;10.112;2022-08-25T11:35:08;101833.47;;;27.36
69857;BMP280;57147;53.582;10.112;2022-08-25T11:40:21;101833.50;;;27.86
69857;BMP280;57147;53.582;10.112;2022-08-25T11:50:58;101803.75;;;28.26
69857;BMP280;57147;53.582;10.112;2022-08-25T11:56:01;101804.19;;;28.14
69857;BMP280;57147;53.582;10.112;2022-08-25T12:01:04;101798.16;;;28.62
69857;BMP280;57147;53.582;10.112;2022-08-25T12:06:23;101803.56;;;28.79
69857;BMP280;57147;53.582;10.112;2022-08-25T12:11:49;101785.78;;;28.29
69857;BMP280;57147;53.582;10.112;2022-08-25T12:17:06;101782.81;;;28.89
69857;BMP280;57147;53.582;10.112;2022-08-25T12:27:44;101779.38;;;28.74
69857;BMP280;57147;53.582;10.112;2022-08-25T12:33:00;101768.88;;;29.99
69857;BMP280;57147;53.582;10.112;2022-08-25T12:38:09;101767.63;;;29.73
69857;BMP280;57147;53.582;10.112;2022-08-25T12:43:24;101748.09;;;30.35
69857;BMP280;57147;53.582;10.112;2022-08-25T12:48:53;101752.38;;;31.13
69857;BMP280;57147;53.582;10.112;2022-08-25T12:53:59;101741.38;;;30.66
69857;BMP280;57147;53.582;10.112;2022-08-25T12:59:11;101737.28;;;31.24
69857;BMP280;57147;53.582;10.112;2022-08-25T13:04:34;101719.28;;;32.02
69857;BMP280;57147;53.582;10.112;2022-08-25T13:15:15;101728.13;;;31.90
69857;BMP280;57147;53.582;10.112;2022-08-25T13:20:26;101710.66;;;32.36
69857;BMP280;57147;53.582;10.112;2022-08-25T13:25:27;101704.88;;;32.14
69857;BMP280;57147;53.582;10.112;2022-08-25T13:30:33;101695.06;;;32.94
69857;BMP280;57147;53.582;10.112;2022-08-25T13:35:34;101688.91;;;32.41
69857;BMP280;57147;53.582;10.112;2022-08-25T13:40:35;101687.22;;;31.60
69857;BMP280;57147;53.582;10.112;2022-08-25T13:45:40;101686.25;;;30.84
69857;BMP280;57147;53.582;10.112;2022-08-25T13:50:42;101687.06;;;30.81
69857;BMP280;57147;53.582;10.112;2022-08-25T13:55:48;101665.25;;;31.60
69857;BMP280;57147;53.582;10.112;2022-08-25T14:01:06;101671.59;;;31.14
69857;BMP280;57147;53.582;10.112;2022-08-25T14:06:09;101667.25;;;32.11
69857;BMP280;57147;53.582;10.112;2022-08-25T14:11:11;101669.66;;;31.73
69857;BMP280;57147;53.582;10.112;2022-08-25T14:16:19;101647.47;;;31.05
69857;BMP280;57147;53.582;10.112;2022-08-25T14:21:26;101645.25;;;32.11
69857;BMP280;57147;53.582;10.112;2022-08-25T14:26:27;101647.59;;;33.18
69857;BMP280;57147;53.582;10.112;2022-08-25T14:31:32;101651.69;;;33.26
69857;BMP280;57147;53.582;10.112;2022-08-25T14:36:34;101646.28;;;32.01
69857;BMP280;57147;53.582;10.112;2022-08-25T14:41:37;101644.44;;;31.43
69857;BMP280;57147;53.582;10.112;2022-08-25T14:46:44;101631.88;;;31.42
69857;BMP280;57147;53.582;10.112;2022-08-25T14:51:45;101621.31;;;31.60
69857;BMP280;57147;53.582;10.112;2022-08-25T14:56:46;101620.34;;;31.50
69857;BMP280;57147;53.582;10.112;2022-08-25T15:01:50;101619.50;;;30.71
69857;BMP280;57147;53.582;10.112;2022-08-25T15:06:54;101612.22;;;30.11
69857;BMP280;57147;53.582;10.112;2022-08-25T15:11:57;101598.91;;;29.56
69857;BMP280;57147;53.582;10.112;2022-08-25T15:17:00;101597.88;;;30.03
69857;BMP280;57147;53.582;10.112;2022-08-25T15:22:01;101596.22;;;29.83
69857;BMP280;57147;53.582;10.112;2022-08-25T15:27:03;101593.06;;;30.34
69857;BMP280;57147;53.582;10.112;2022-08-25T15:32:07;101571.38;;;31.09
69857;BMP280;57147;53.582;10.112;2022-08-25T15:37:09;101576.47;;;31.98
69857;BMP280;57147;53.582;10.112;2022-08-25T15:42:11;101575.38;;;32.12
69857;BMP280;57147;53.582;10.112;2022-08-25T15:47:14;101567.78;;;31.68
69857;BMP280;57147;53.582;10.112;2022-08-25T15:52:15;101568.84;;;30.56
69857;BMP280;57147;53.582;10.112;2022-08-25T15:57:15;101562.84;;;31.43
69857;BMP280;57147;53.582;10.112;2022-08-25T16:02:19;101559.41;;;32.07
69857;BMP280;57147;53.582;10.112;2022-08-25T16:07:20;101560.25;;;32.49
69857;BMP280;57147;53.582;10.112;2022-08-25T16:12:21;101560.75;;;32.31
69857;BMP280;57147;53.582;10.112;2022-08-25T16:17:24;101548.75;;;32.09
69857;BMP280;57147;53.582;10.112;2022-08-25T16:22:25;101544.53;;;32.21
69857;BMP280;57147;53.582;10.112;2022-08-25T16:27:25;101544.88;;;32.51
69857;BMP280;57147;53.582;10.112;2022-08-25T16:32:28;101549.00;;;32.59
69857;BMP280;57147;53.582;10.112;2022-08-25T16:37:31;101535.22;;;32.76
69857;BMP280;57147;53.582;10.112;2022-08-25T16:42:34;101507.63;;;32.50
69857;BMP280;57147;53.582;10.112;2022-08-25T16:47:38;101509.16;;;32.23
69857;BMP280;57147;53.582;10.112;2022-08-25T16:52:39;101528.50;;;31.87
69857;BMP280;57147;53.582;10.112;2022-08-25T16:57:42;101526.25;;;31.66
69857;BMP280;57147;53.582;10.112;2022-08-25T17:02:45;101527.09;;;31.63
69857;BMP280;57147;53.582;10.112;2022-08-25T17:07:46;101522.09;;;31.42
69857;BMP280;57147;53.582;10.112;2022-08-25T17:12:46;101524.06;;;30.82
69857;BMP280;57147;53.582;10.112;2022-08-25T17:17:51;101514.97;;;30.23
69857;BMP280;57147;53.582;10.112;2022-08-25T17:22:51;101523.31;;;29.92
69857;BMP280;57147;53.582;10.112;2022-08-25T17:27:52;101523.09;;;29.53
69857;BMP280;57147;53.582;10.112;2022-08-25T17:32:55;101531.97;;;28.97
69857;BMP280;57147;53.582;10.112;2022-08-25T17:37:57;101528.19;;;28.43
69857;BMP280;57147;53.582;10.112;2022-08-25T17:42:58;101512.88;;;27.97
69857;BMP280;57147;53.582;10.112;2022-08-25T17:48:02;101525.13;;;27.68
69857;BMP280;57147;53.582;10.112;2022-08-25T17:53:03;101528.72;;;27.47
69857;BMP280;57147;53.582;10.112;2022-08-25T17:58:15;101538.56;;;27.20
69857;BMP280;57147;53.582;10.112;2022-08-25T18:03:18;101517.97;;;26.84
69857;BMP280;57147;53.582;10.112;2022-08-25T18:08:19;101521.09;;;26.65
69857;BMP280;57147;53.582;10.112;2022-08-25T18:13:20;101519.94;;;26.41
69857;BMP280;57147;53.582;10.112;2022-08-25T18:18:23;101516.38;;;26.12
69857;BMP280;57147;53.582;10.112;2022-08-25T18:23:23;101546.69;;;26.03
69857;BMP280;57147;53.582;10.112;2022-08-25T18:28:24;101503.00;;;25.58
69857;BMP280;57147;53.582;10.112;2022-08-25T18:33:27;101533.28;;;25.60
69857;BMP280;57147;53.582;10.112;2022-08-25T18:38:28;101544.53;;;25.47
69857;BMP280;57147;53.582;10.112;2022-08-25T18:43:29;101547.91;;;25.30
69857;BMP280;57147;53.582;10.112;2022-08-25T18:48:32;101538.44;;;25.10
69857;BMP280;57147;53.582;10.112;2022-08-25T18:53:33;101547.56;;;24.88
69857;BMP280;57147;53.582;10.112;2022-08-25T18:58:33;101545.88;;;24.73
69857;BMP280;57147;53.582;10.112;2022-08-25T19:03:37;101531.34;;;24.51
69857;BMP280;57147;53.582;10.112;2022-08-25T19:08:37;101552.63;;;24.46
69857;BMP280;57147;53.582;10.112;2022-08-25T19:13:38;101554.03;;;24.32
69857;BMP280;57147;53.582;10.112;2022-08-25T19:18:42;101509.72;;;23.92
69857;BMP280;57147;53.582;10.112;2022-08-25T19:23:43;101549.03;;;24.05
69857;BMP280;57147;53.582;10.112;2022-08-25T19:28:44;101544.59;;;23.93
69857;BMP280;57147;53.582;10.112;2022-08-25T19:33:49;101549.16;;;23.82
69857;BMP280;57147;53.582;10.112;2022-08-25T19:38:50;101548.72;;;23.80
69857;BMP280;57147;53.582;10.112;2022-08-25T19:43:51;101542.31;;;23.65
69857;BMP280;57147;53.582;10.112;2022-08-25T19:48:54;101542.16;;;23.55
69857;BMP280;57147;53.582;10.112;2022-08-25T19:53:55;101551.34;;;23.47
69857;BMP280;57147;53.582;10.112;2022-08-25T19:58:55;101530.91;;;23.26
69857;BMP280;57147;53.582;10.112;2022-08-25T20:03:59;101549.56;;;23.31
69857;BMP280;57147;53.582;10.112;2022-08-25T20:08:59;101553.00;;;23.28
69857;BMP280;57147;53.582;10.112;2022-08-25T20:14:00;101554.75;;;23.17
69857;BMP280;57147;53.582;10.112;2022-08-25T20:19:04;101523.09;;;22.95
69857;BMP280;57147;53.582;10.112;2022-08-25T20:24:06;101554.44;;;23.00
69857;BMP280;57147;53.582;10.112;2022-08-25T20:29:07;101546.59;;;22.91
69857;BMP280;57147;53.582;10.112;2022-08-25T20:34:10;101544.06;;;22.79
69857;BMP280;57147;53.582;10.112;2022-08-25T20:39:11;101560.25;;;22.75
69857;BMP280;57147;53.582;10.112;2022-08-25T20:44:11;101554.34;;;22.70
69857;BMP280;57147;53.582;10.112;2022-08-25T20:49:15;101552.63;;;22.62
69857;BMP280;57147;53.582;10.112;2022-08-25T20:54:15;101533.34;;;22.44
69857;BMP280;57147;53.582;10.112;2022-08-25T20:59:20;101549.53;;;22.41
69857;BMP280;57147;53.582;10.112;2022-08-25T21:04:25;101543.25;;;22.37
69857;BMP280;57147;53.582;10.112;2022-08-25T21:09:26;101543.97;;;22.33
69857;BMP280;57147;53.582;10.112;2022-08-25T21:14:27;101553.78;;;22.22
69857;BMP280;57147;53.582;10.112;2022-08-25T21:19:30;101542.91;;;22.19
69857;BMP280;57147;53.582;10.112;2022-08-25T21:24:31;101553.34;;;22.20
69857;BMP280;57147;53.582;10.112;2022-08-25T21:29:32;101555.63;;;22.18
69857;BMP280;57147;53.582;10.112;2022-08-25T21:34:35;101553.66;;;22.15
69857;BMP280;57147;53.582;10.112;2022-08-25T21:39:36;101550.09;;;22.11
69857;BMP280;57147;53.582;10.112;2022-08-25T21:44:36;101551.88;;;22.04
69857;BMP280;57147;53.582;10.112;2022-08-25T21:49:39;101557.88;;;21.97
69857;BMP280;57147;53.582;10.112;2022-08-25T21:54:40;101524.81;;;21.69
69857;BMP280;57147;53.582;10.112;2022-08-25T21:59:41;101553.81;;;21.88
69857;BMP280;57147;53.582;10.112;2022-08-25T22:04:44;101543.78;;;21.88
69857;BMP280;57147;53.582;10.112;2022-08-25T22:09:44;101546.56;;;21.92
69857;BMP280;57147;53.582;10.112;2022-08-25T22:14:45;101549.59;;;22.06
69857;BMP280;57147;53.582;10.112;2022-08-25T22:19:48;101542.44;;;22.17
69857;BMP280;57147;53.582;10.112;2022-08-25T22:24:49;101540.13;;;22.15
69857;BMP280;57147;53.582;10.112;2022-08-25T22:29:50;101534.78;;;22.19
69857;BMP280;57147;53.582;10.112;2022-08-25T22:34:53;101531.59;;;22.13
69857;BMP280;57147;53.582;10.112;2022-08-25T22:39:54;101536.69;;;22.18
69857;BMP280;57147;53.582;10.112;2022-08-25T22:44:54;101535.13;;;22.17
69857;BMP280;57147;53.582;10.112;2022-08-25T22:49:59;101539.31;;;22.15
69857;BMP280;57147;53.582;10.112;2022-08-25T22:55:00;101531.16;;;22.11
69857;BMP280;57147;53.582;10.112;2022-08-25T23:00:01;101540.41;;;22.10
69857;BMP280;57147;53.582;10.112;2022-08-25T23:05:05;101532.72;;;22.12
69857;BMP280;57147;53.582;10.112;2022-08-25T23:10:09;101527.22;;;22.09
69857;BMP280;57147;53.582;10.112;2022-08-25T23:15:11;101521.03;;;22.08
69857;BMP280;57147;53.582;10.112;2022-08-25T23:20:14;101524.91;;;22.07
69857;BMP280;57147;53.582;10.112;2022-08-25T23:25:15;101514.09;;;22.07
69857;BMP280;57147;53.582;10.112;2022-08-25T23:30:16;101507.66;;;21.96
69857;BMP280;57147;53.582;10.112;2022-08-25T23:35:19;101509.94;;;21.94
69857;BMP280;57147;53.582;10.112;2022-08-25T23:40:20;101511.75;;;21.90
69857;BMP280;57147;53.582;10.112;2022-08-25T23:45:20;101509.34;;;21.85
69857;BMP280;57147;53.582;10.112;2022-08-25T23:50:24;101494.25;;;21.84
69857;BMP280;57147;53.582;10.112;2022-08-25T23:55:24;101491.47;;;21.80
